sensor_id;sensor_type;location;lat;lon;timestamp;pressure;altitude;pressure_sealevel;temperature;humidity
54262;BME280;40174;52.364;6.452;2022-08-21T00:00:40;101474.00;;;15.38;100.00
54262;BME280;40174;52.364;6.452;2022-08-21T00:03:08;101463.31;;;15.28;100.00
54262;BME280;40174;52.364;6.452;2022-08-21T00:05:37;101463.44;;;15.27;100.00
54262;BME280;40174;52.364;6.452;2022-08-21T00:08:04;101463.72;;;15.24;100.00
54262;BME280;40174;52.364;6.452;2022-08-21T00:10:31;101449.41;;;15.15;100.00
54262;BME280;40174;52.364;6.452;2022-08-21T00:13:01;101455.03;;;15.12;100.00
54262;BME280;40174;52.364;6.452;2022-08-21T00:15:30;101458.09;;;15.07;100.00
54262;BME280;40174;52.364;6.452;2022-08-21T00:17:57;101449.13;;;15.08;100.00
54262;BME280;40174;52.364;6.452;2022-08-21T00:20:24;101450.53;;;15.03;100.00
54262;BME280;40174;52.364;6.452;2022-08-21T00:22:51;101451.66;;;15.00;100.00
54262;BME280;40174;52.364;6.452;2022-08-21T00:25:18;101458.47;;;14.93;100.00
54262;BME280;40174;52.364;6.452;2022-08-21T00:27:45;101456.53;;;14.95;100.00
54262;BME280;40174;52.364;6.452;2022-08-21T00:30:14;101454.97;;;14.92;100.00
54262;BME280;40174;52.364;6.452;2022-08-21T00:32:41;101449.66;;;14.92;100.00
54262;BME280;40174;52.364;6.452;2022-08-21T00:35:10;101457.09;;;14.99;100.00
54262;BME280;40174;52.364;6.452;2022-08-21T00:37:37;101466.63;;;15.01;100.00
54262;BME280;40174;52.364;6.452;2022-08-21T00:40:08;101456.28;;;14.98;100.00
54262;BME280;40174;52.364;6.452;2022-08-21T00:42:35;101463.25;;;14.89;100.00
54262;BME280;40174;52.364;6.452;2022-08-21T00:45:03;101462.38;;;14.79;100.00
54262;BME280;40174;52.364;6.452;2022-08-21T00:47:31;101457.31;;;14.76;100.00
54262;BME280;40174;52.364;6.452;2022-08-21T00:49:58;101462.66;;;14.76;100.00
54262;BME280;40174;52.364;6.452;2022-08-21T00:52:27;101455.72;;;14.64;100.00
54262;BME280;40174;52.364;6.452;2022-08-21T00:54:56;101456.31;;;14.67;100.00
54262;BME280;40174;52.364;6.452;2022-08-21T00:57:29;101452.22;;;14.63;100.00
54262;BME280;40174;52.364;6.452;2022-08-21T00:59:58;101451.09;;;14.56;100.00
54262;BME280;40174;52.364;6.452;2022-08-21T01:02:26;101464.88;;;14.50;100.00
54262;BME280;40174;52.364;6.452;2022-08-21T01:04:54;101459.13;;;14.45;100.00
54262;BME280;40174;52.364;6.452;2022-08-21T01:07:21;101455.06;;;14.41;100.00
54262;BME280;40174;52.364;6.452;2022-08-21T01:09:48;101452.28;;;14.42;100.00
54262;BME280;40174;52.364;6.452;2022-08-21T01:12:15;101448.78;;;14.42;100.00
54262;BME280;40174;52.364;6.452;2022-08-21T01:14:43;101454.34;;;14.39;100.00
54262;BME280;40174;52.364;6.452;2022-08-21T01:17:10;101440.34;;;14.37;100.00
54262;BME280;40174;52.364;6.452;2022-08-21T01:19:38;101441.44;;;14.34;100.00
54262;BME280;40174;52.364;6.452;2022-08-21T01:22:06;101451.38;;;14.32;100.00
54262;BME280;40174;52.364;6.452;2022-08-21T01:24:32;101450.13;;;14.36;100.00
54262;BME280;40174;52.364;6.452;2022-08-21T01:26:59;101458.53;;;14.41;100.00
54262;BME280;40174;52.364;6.452;2022-08-21T01:29:30;101456.59;;;14.43;100.00
54262;BME280;40174;52.364;6.452;2022-08-21T01:31:59;101462.50;;;14.47;100.00
54262;BME280;40174;52.364;6.452;2022-08-21T01:34:26;101455.50;;;14.46;100.00
54262;BME280;40174;52.364;6.452;2022-08-21T01:41:08;101456.34;;;14.46;100.00
54262;BME280;40174;52.364;6.452;2022-08-21T01:43:35;101452.28;;;14.42;100.00
54262;BME280;40174;52.364;6.452;2022-08-21T01:46:02;101455.88;;;14.41;100.00
54262;BME280;40174;52.364;6.452;2022-08-21T01:48:29;101459.53;;;14.40;100.00
54262;BME280;40174;52.364;6.452;2022-08-21T01:50:55;101449.59;;;14.42;100.00
54262;BME280;40174;52.364;6.452;2022-08-21T01:53:22;101445.72;;;14.46;100.00
54262;BME280;40174;52.364;6.452;2022-08-21T01:55:48;101449.91;;;14.49;100.00
54262;BME280;40174;52.364;6.452;2022-08-21T01:58:16;101438.28;;;14.50;100.00
54262;BME280;40174;52.364;6.452;2022-08-21T02:00:43;101438.44;;;14.48;100.00
54262;BME280;40174;52.364;6.452;2022-08-21T02:03:09;101439.00;;;14.52;100.00
54262;BME280;40174;52.364;6.452;2022-08-21T02:05:36;101439.28;;;14.49;100.00
54262;BME280;40174;52.364;6.452;2022-08-21T02:08:03;101440.25;;;14.48;100.00
54262;BME280;40174;52.364;6.452;2022-08-21T02:10:32;101439.84;;;14.52;100.00
54262;BME280;40174;52.364;6.452;2022-08-21T02:12:59;101439.13;;;14.50;100.00
54262;BME280;40174;52.364;6.452;2022-08-21T02:15:27;101433.69;;;14.52;100.00
54262;BME280;40174;52.364;6.452;2022-08-21T02:17:56;101437.72;;;14.46;100.00
54262;BME280;40174;52.364;6.452;2022-08-21T02:20:25;101441.34;;;14.45;100.00
54262;BME280;40174;52.364;6.452;2022-08-21T02:22:53;101435.59;;;14.40;100.00
54262;BME280;40174;52.364;6.452;2022-08-21T02:25:21;101438.38;;;14.39;100.00
54262;BME280;40174;52.364;6.452;2022-08-21T02:27:48;101438.50;;;14.37;100.00
54262;BME280;40174;52.364;6.452;2022-08-21T02:30:18;101437.94;;;14.33;100.00
54262;BME280;40174;52.364;6.452;2022-08-21T02:32:46;101444.38;;;14.31;100.00
54262;BME280;40174;52.364;6.452;2022-08-21T02:35:13;101444.91;;;14.25;100.00
54262;BME280;40174;52.364;6.452;2022-08-21T02:37:48;101436.72;;;14.17;100.00
54262;BME280;40174;52.364;6.452;2022-08-21T02:40:15;101438.81;;;14.13;100.00
54262;BME280;40174;52.364;6.452;2022-08-21T02:42:42;101434.63;;;14.10;100.00
54262;BME280;40174;52.364;6.452;2022-08-21T02:45:09;101432.91;;;14.09;100.00
54262;BME280;40174;52.364;6.452;2022-08-21T02:47:36;101435.56;;;14.09;100.00
54262;BME280;40174;52.364;6.452;2022-08-21T02:50:06;101427.88;;;14.06;100.00
54262;BME280;40174;52.364;6.452;2022-08-21T02:52:33;101437.53;;;14.07;100.00
54262;BME280;40174;52.364;6.452;2022-08-21T02:55:00;101432.22;;;14.07;100.00
54262;BME280;40174;52.364;6.452;2022-08-21T02:57:26;101431.25;;;14.08;100.00
54262;BME280;40174;52.364;6.452;2022-08-21T02:59:53;101425.34;;;14.05;100.00
54262;BME280;40174;52.364;6.452;2022-08-21T03:02:19;101428.13;;;14.03;100.00
54262;BME280;40174;52.364;6.452;2022-08-21T03:04:47;101421.13;;;14.02;100.00
54262;BME280;40174;52.364;6.452;2022-08-21T03:07:15;101416.50;;;13.95;100.00
54262;BME280;40174;52.364;6.452;2022-08-21T03:09:41;101417.13;;;13.87;100.00
54262;BME280;40174;52.364;6.452;2022-08-21T03:12:08;101415.69;;;13.83;100.00
54262;BME280;40174;52.364;6.452;2022-08-21T03:14:34;101418.22;;;13.84;100.00
54262;BME280;40174;52.364;6.452;2022-08-21T03:17:01;101411.59;;;13.79;100.00
54262;BME280;40174;52.364;6.452;2022-08-21T03:19:27;101416.91;;;13.79;100.00
54262;BME280;40174;52.364;6.452;2022-08-21T03:21:54;101409.94;;;13.78;100.00
54262;BME280;40174;52.364;6.452;2022-08-21T03:24:22;101412.88;;;13.75;100.00
54262;BME280;40174;52.364;6.452;2022-08-21T03:26:48;101401.91;;;13.68;100.00
54262;BME280;40174;52.364;6.452;2022-08-21T03:29:15;101407.47;;;13.65;100.00
54262;BME280;40174;52.364;6.452;2022-08-21T03:31:41;101404.25;;;13.61;100.00
54262;BME280;40174;52.364;6.452;2022-08-21T03:34:08;101404.03;;;13.53;100.00
54262;BME280;40174;52.364;6.452;2022-08-21T03:36:35;101405.25;;;13.49;100.00
54262;BME280;40174;52.364;6.452;2022-08-21T03:39:02;101406.25;;;13.48;100.00
54262;BME280;40174;52.364;6.452;2022-08-21T03:41:30;101404.53;;;13.47;100.00
54262;BME280;40174;52.364;6.452;2022-08-21T03:43:56;101404.69;;;13.45;100.00
54262;BME280;40174;52.364;6.452;2022-08-21T03:46:24;101405.38;;;13.47;100.00
54262;BME280;40174;52.364;6.452;2022-08-21T03:48:50;101410.94;;;13.44;100.00
54262;BME280;40174;52.364;6.452;2022-08-21T03:51:18;101419.31;;;13.40;100.00
54262;BME280;40174;52.364;6.452;2022-08-21T03:53:45;101408.06;;;13.36;100.00
54262;BME280;40174;52.364;6.452;2022-08-21T03:56:11;101412.44;;;13.37;100.00
54262;BME280;40174;52.364;6.452;2022-08-21T03:58:39;101419.69;;;13.35;100.00
54262;BME280;40174;52.364;6.452;2022-08-21T04:01:06;101418.00;;;13.34;100.00
54262;BME280;40174;52.364;6.452;2022-08-21T04:03:35;101415.47;;;13.33;100.00
54262;BME280;40174;52.364;6.452;2022-08-21T04:06:02;101420.50;;;13.36;100.00
54262;BME280;40174;52.364;6.452;2022-08-21T04:08:29;101416.44;;;13.31;100.00
54262;BME280;40174;52.364;6.452;2022-08-21T04:10:56;101404.13;;;13.30;100.00
54262;BME280;40174;52.364;6.452;2022-08-21T04:13:24;101413.06;;;13.29;100.00
54262;BME280;40174;52.364;6.452;2022-08-21T04:15:53;101411.13;;;13.31;100.00
54262;BME280;40174;52.364;6.452;2022-08-21T04:18:19;101406.06;;;13.28;100.00
54262;BME280;40174;52.364;6.452;2022-08-21T04:20:49;101403.50;;;13.27;100.00
54262;BME280;40174;52.364;6.452;2022-08-21T04:23:16;101400.75;;;13.28;100.00
54262;BME280;40174;52.364;6.452;2022-08-21T04:25:43;101407.63;;;13.31;100.00
54262;BME280;40174;52.364;6.452;2022-08-21T04:28:09;101404.47;;;13.26;100.00
54262;BME280;40174;52.364;6.452;2022-08-21T04:30:36;101405.22;;;13.28;100.00
54262;BME280;40174;52.364;6.452;2022-08-21T04:33:04;101400.66;;;13.30;100.00
54262;BME280;40174;52.364;6.452;2022-08-21T04:35:31;101410.03;;;13.34;100.00
54262;BME280;40174;52.364;6.452;2022-08-21T04:37:58;101418.84;;;13.35;100.00
54262;BME280;40174;52.364;6.452;2022-08-21T04:40:26;101411.84;;;13.34;100.00
54262;BME280;40174;52.364;6.452;2022-08-21T04:42:54;101409.91;;;13.36;100.00
54262;BME280;40174;52.364;6.452;2022-08-21T04:45:23;101412.44;;;13.37;100.00
54262;BME280;40174;52.364;6.452;2022-08-21T04:47:51;101415.94;;;13.38;100.00
54262;BME280;40174;52.364;6.452;2022-08-21T04:50:19;101411.59;;;13.37;100.00
54262;BME280;40174;52.364;6.452;2022-08-21T04:53:03;101414.38;;;13.35;100.00
54262;BME280;40174;52.364;6.452;2022-08-21T04:55:30;101418.59;;;13.38;100.00
54262;BME280;40174;52.364;6.452;2022-08-21T04:57:56;101420.13;;;13.40;100.00
54262;BME280;40174;52.364;6.452;2022-08-21T05:00:24;101419.41;;;13.38;100.00
54262;BME280;40174;52.364;6.452;2022-08-21T05:02:52;101423.78;;;13.39;100.00
54262;BME280;40174;52.364;6.452;2022-08-21T05:05:23;101428.09;;;13.40;100.00
54262;BME280;40174;52.364;6.452;2022-08-21T05:07:51;101423.06;;;13.37;100.00
54262;BME280;40174;52.364;6.452;2022-08-21T05:10:18;101424.72;;;13.38;100.00
54262;BME280;40174;52.364;6.452;2022-08-21T05:12:45;101428.09;;;13.40;100.00
54262;BME280;40174;52.364;6.452;2022-08-21T05:15:12;101420.00;;;13.42;100.00
54262;BME280;40174;52.364;6.452;2022-08-21T05:17:39;101429.53;;;13.44;100.00
54262;BME280;40174;52.364;6.452;2022-08-21T05:20:07;101433.75;;;13.47;100.00
54262;BME280;40174;52.364;6.452;2022-08-21T05:22:35;101417.69;;;13.48;100.00
54262;BME280;40174;52.364;6.452;2022-08-21T05:25:02;101436.88;;;13.52;100.00
54262;BME280;40174;52.364;6.452;2022-08-21T05:27:28;101422.50;;;13.55;100.00
54262;BME280;40174;52.364;6.452;2022-08-21T05:29:55;101429.25;;;13.59;100.00
54262;BME280;40174;52.364;6.452;2022-08-21T05:32:22;101421.00;;;13.62;100.00
54262;BME280;40174;52.364;6.452;2022-08-21T05:34:48;101429.69;;;13.64;100.00
54262;BME280;40174;52.364;6.452;2022-08-21T05:37:15;101428.59;;;13.66;100.00
54262;BME280;40174;52.364;6.452;2022-08-21T05:39:43;101415.75;;;13.71;100.00
54262;BME280;40174;52.364;6.452;2022-08-21T05:42:11;101422.50;;;13.76;100.00
54262;BME280;40174;52.364;6.452;2022-08-21T05:44:37;101427.44;;;13.80;100.00
54262;BME280;40174;52.364;6.452;2022-08-21T05:47:05;101419.91;;;13.85;100.00
54262;BME280;40174;52.364;6.452;2022-08-21T05:49:33;101417.97;;;13.87;100.00
54262;BME280;40174;52.364;6.452;2022-08-21T05:51:59;101426.41;;;13.92;100.00
54262;BME280;40174;52.364;6.452;2022-08-21T05:54:26;101430.47;;;13.97;100.00
54262;BME280;40174;52.364;6.452;2022-08-21T05:56:54;101425.63;;;14.02;100.00
54262;BME280;40174;52.364;6.452;2022-08-21T05:59:21;101421.56;;;14.07;100.00
54262;BME280;40174;52.364;6.452;2022-08-21T06:01:47;101425.97;;;14.18;100.00
54262;BME280;40174;52.364;6.452;2022-08-21T06:04:14;101409.22;;;14.27;100.00
54262;BME280;40174;52.364;6.452;2022-08-21T06:06:41;101426.59;;;14.31;100.00
54262;BME280;40174;52.364;6.452;2022-08-21T06:09:08;101412.47;;;14.31;100.00
54262;BME280;40174;52.364;6.452;2022-08-21T06:11:34;101415.56;;;14.36;100.00
54262;BME280;40174;52.364;6.452;2022-08-21T06:14:02;101410.44;;;14.44;100.00
54262;BME280;40174;52.364;6.452;2022-08-21T06:16:31;101410.97;;;14.48;100.00
54262;BME280;40174;52.364;6.452;2022-08-21T06:18:58;101411.06;;;14.58;100.00
54262;BME280;40174;52.364;6.452;2022-08-21T06:21:25;101414.16;;;14.63;100.00
54262;BME280;40174;52.364;6.452;2022-08-21T06:23:51;101409.41;;;14.66;100.00
54262;BME280;40174;52.364;6.452;2022-08-21T06:26:18;101422.31;;;14.71;100.00
54262;BME280;40174;52.364;6.452;2022-08-21T06:28:45;101428.22;;;14.84;100.00
54262;BME280;40174;52.364;6.452;2022-08-21T06:31:15;101429.22;;;14.93;100.00
54262;BME280;40174;52.364;6.452;2022-08-21T06:33:43;101429.25;;;15.03;100.00
54262;BME280;40174;52.364;6.452;2022-08-21T06:36:09;101428.66;;;15.09;100.00
54262;BME280;40174;52.364;6.452;2022-08-21T06:38:36;101432.31;;;15.17;100.00
54262;BME280;40174;52.364;6.452;2022-08-21T06:41:03;101431.06;;;15.22;100.00
54262;BME280;40174;52.364;6.452;2022-08-21T06:43:30;101434.31;;;15.25;100.00
54262;BME280;40174;52.364;6.452;2022-08-21T06:45:57;101430.81;;;15.34;100.00
54262;BME280;40174;52.364;6.452;2022-08-21T06:48:25;101427.31;;;15.44;100.00
54262;BME280;40174;52.364;6.452;2022-08-21T06:50:51;101429.41;;;15.50;100.00
54262;BME280;40174;52.364;6.452;2022-08-21T06:53:20;101424.22;;;15.48;100.00
54262;BME280;40174;52.364;6.452;2022-08-21T06:55:48;101427.59;;;15.50;100.00
54262;BME280;40174;52.364;6.452;2022-08-21T06:58:15;101434.03;;;15.57;100.00
54262;BME280;40174;52.364;6.452;2022-08-21T07:00:44;101429.41;;;15.59;100.00
54262;BME280;40174;52.364;6.452;2022-08-21T07:03:17;101429.69;;;15.66;100.00
54262;BME280;40174;52.364;6.452;2022-08-21T07:05:46;101424.66;;;15.73;100.00
54262;BME280;40174;52.364;6.452;2022-08-21T07:08:12;101422.38;;;15.78;100.00
54262;BME280;40174;52.364;6.452;2022-08-21T07:10:39;101422.53;;;15.86;100.00
54262;BME280;40174;52.364;6.452;2022-08-21T07:13:05;101421.66;;;15.95;100.00
54262;BME280;40174;52.364;6.452;2022-08-21T07:15:32;101422.50;;;16.06;100.00
54262;BME280;40174;52.364;6.452;2022-08-21T07:17:59;101417.13;;;16.15;100.00
54262;BME280;40174;52.364;6.452;2022-08-21T07:20:26;101414.72;;;16.22;100.00
54262;BME280;40174;52.364;6.452;2022-08-21T07:22:54;101421.13;;;16.29;100.00
54262;BME280;40174;52.364;6.452;2022-08-21T07:25:21;101408.63;;;16.39;100.00
54262;BME280;40174;52.364;6.452;2022-08-21T07:27:48;101415.19;;;16.45;100.00
54262;BME280;40174;52.364;6.452;2022-08-21T07:30:15;101412.22;;;16.48;100.00
54262;BME280;40174;52.364;6.452;2022-08-21T07:32:41;101409.50;;;16.58;100.00
54262;BME280;40174;52.364;6.452;2022-08-21T07:35:08;101404.09;;;16.68;100.00
54262;BME280;40174;52.364;6.452;2022-08-21T07:37:34;101396.19;;;16.76;100.00
54262;BME280;40174;52.364;6.452;2022-08-21T07:40:03;101405.69;;;16.88;100.00
54262;BME280;40174;52.364;6.452;2022-08-21T07:42:30;101394.81;;;16.99;100.00
54262;BME280;40174;52.364;6.452;2022-08-21T07:44:57;101399.25;;;17.09;100.00
54262;BME280;40174;52.364;6.452;2022-08-21T07:47:23;101400.69;;;17.21;100.00
54262;BME280;40174;52.364;6.452;2022-08-21T07:49:50;101402.16;;;17.33;100.00
54262;BME280;40174;52.364;6.452;2022-08-21T07:52:16;101404.03;;;17.41;100.00
54262;BME280;40174;52.364;6.452;2022-08-21T07:54:43;101401.50;;;17.57;99.16
54262;BME280;40174;52.364;6.452;2022-08-21T07:57:11;101399.44;;;17.69;97.57
54262;BME280;40174;52.364;6.452;2022-08-21T07:59:37;101407.81;;;17.92;98.82
54262;BME280;40174;52.364;6.452;2022-08-21T08:02:04;101394.50;;;18.00;98.64
54262;BME280;40174;52.364;6.452;2022-08-21T08:04:30;101389.19;;;18.08;97.10
54262;BME280;40174;52.364;6.452;2022-08-21T08:06:57;101395.97;;;18.29;96.83
54262;BME280;40174;52.364;6.452;2022-08-21T08:09:24;101391.00;;;18.42;96.55
54262;BME280;40174;52.364;6.452;2022-08-21T08:11:50;101391.72;;;18.53;95.48
54262;BME280;40174;52.364;6.452;2022-08-21T08:14:18;101394.47;;;18.69;96.07
54262;BME280;40174;52.364;6.452;2022-08-21T08:16:44;101399.16;;;18.75;92.40
54262;BME280;40174;52.364;6.452;2022-08-21T08:19:11;101401.22;;;18.89;93.39
54262;BME280;40174;52.364;6.452;2022-08-21T08:21:37;101396.91;;;19.05;92.69
54262;BME280;40174;52.364;6.452;2022-08-21T08:24:04;101396.94;;;19.13;91.04
54262;BME280;40174;52.364;6.452;2022-08-21T08:26:31;101402.13;;;19.23;89.79
54262;BME280;40174;52.364;6.452;2022-08-21T08:28:58;101401.97;;;19.32;89.31
54262;BME280;40174;52.364;6.452;2022-08-21T08:31:26;101399.28;;;19.41;88.55
54262;BME280;40174;52.364;6.452;2022-08-21T08:33:52;101403.50;;;19.51;86.07
54262;BME280;40174;52.364;6.452;2022-08-21T08:36:19;101402.63;;;19.67;86.62
54262;BME280;40174;52.364;6.452;2022-08-21T08:38:46;101392.09;;;19.82;86.56
54262;BME280;40174;52.364;6.452;2022-08-21T08:41:16;101385.34;;;19.94;84.99
54262;BME280;40174;52.364;6.452;2022-08-21T08:43:50;101392.72;;;20.01;82.34
54262;BME280;40174;52.364;6.452;2022-08-21T08:46:21;101401.59;;;20.09;81.89
54262;BME280;40174;52.364;6.452;2022-08-21T08:48:57;101395.53;;;20.15;80.16
54262;BME280;40174;52.364;6.452;2022-08-21T08:51:38;101394.50;;;20.25;81.66
54262;BME280;40174;52.364;6.452;2022-08-21T08:54:09;101396.16;;;20.34;79.83
54262;BME280;40174;52.364;6.452;2022-08-21T08:56:37;101395.94;;;20.44;81.26
54262;BME280;40174;52.364;6.452;2022-08-21T08:59:08;101398.56;;;20.60;79.65
54262;BME280;40174;52.364;6.452;2022-08-21T09:01:37;101389.94;;;20.73;79.51
54262;BME280;40174;52.364;6.452;2022-08-21T09:04:06;101401.78;;;20.87;78.24
54262;BME280;40174;52.364;6.452;2022-08-21T09:06:53;101397.88;;;20.97;78.55
54262;BME280;40174;52.364;6.452;2022-08-21T09:09:30;101401.47;;;21.13;77.11
54262;BME280;40174;52.364;6.452;2022-08-21T09:12:05;101401.81;;;21.10;74.13
54262;BME280;40174;52.364;6.452;2022-08-21T09:14:49;101397.03;;;21.20;74.74
54262;BME280;40174;52.364;6.452;2022-08-21T09:17:29;101396.91;;;21.36;75.59
54262;BME280;40174;52.364;6.452;2022-08-21T09:20:14;101402.19;;;21.53;75.49
54262;BME280;40174;52.364;6.452;2022-08-21T09:22:49;101392.47;;;21.67;75.13
54262;BME280;40174;52.364;6.452;2022-08-21T09:25:21;101393.13;;;21.84;73.87
54262;BME280;40174;52.364;6.452;2022-08-21T09:27:48;101392.50;;;21.96;73.11
54262;BME280;40174;52.364;6.452;2022-08-21T09:30:17;101385.66;;;22.09;72.91
54262;BME280;40174;52.364;6.452;2022-08-21T09:32:44;101384.34;;;22.19;70.12
54262;BME280;40174;52.364;6.452;2022-08-21T09:35:14;101389.50;;;22.29;70.11
54262;BME280;40174;52.364;6.452;2022-08-21T09:37:51;101388.16;;;22.55;70.02
54262;BME280;40174;52.364;6.452;2022-08-21T09:40:30;101387.28;;;22.69;69.14
54262;BME280;40174;52.364;6.452;2022-08-21T09:42:59;101389.75;;;22.86;70.12
54262;BME280;40174;52.364;6.452;2022-08-21T09:45:26;101388.41;;;22.96;69.34
54262;BME280;40174;52.364;6.452;2022-08-21T09:47:53;101393.47;;;23.21;69.13
54262;BME280;40174;52.364;6.452;2022-08-21T09:50:23;101380.34;;;23.18;66.01
54262;BME280;40174;52.364;6.452;2022-08-21T09:52:52;101393.97;;;23.31;68.55
54262;BME280;40174;52.364;6.452;2022-08-21T09:55:26;101386.91;;;23.30;66.06
54262;BME280;40174;52.364;6.452;2022-08-21T09:58:14;101386.00;;;23.01;64.22
54262;BME280;40174;52.364;6.452;2022-08-21T10:00:42;101382.97;;;22.90;65.37
54262;BME280;40174;52.364;6.452;2022-08-21T10:03:10;101384.63;;;22.91;65.56
54262;BME280;40174;52.364;6.452;2022-08-21T10:05:39;101381.22;;;23.18;66.34
54262;BME280;40174;52.364;6.452;2022-08-21T10:08:17;101380.09;;;23.34;64.97
54262;BME280;40174;52.364;6.452;2022-08-21T10:10:44;101383.44;;;23.36;63.71
54262;BME280;40174;52.364;6.452;2022-08-21T10:13:15;101388.03;;;23.42;63.15
54262;BME280;40174;52.364;6.452;2022-08-21T10:15:52;101383.94;;;23.47;63.18
54262;BME280;40174;52.364;6.452;2022-08-21T10:18:27;101384.00;;;23.32;62.17
54262;BME280;40174;52.364;6.452;2022-08-21T10:21:01;101386.91;;;23.30;63.96
54262;BME280;40174;52.364;6.452;2022-08-21T10:23:44;101378.59;;;23.53;63.37
54262;BME280;40174;52.364;6.452;2022-08-21T10:26:20;101377.22;;;23.92;65.02
54262;BME280;40174;52.364;6.452;2022-08-21T10:28:59;101378.34;;;24.04;61.57
54262;BME280;40174;52.364;6.452;2022-08-21T10:31:39;101377.28;;;24.40;62.26
54262;BME280;40174;52.364;6.452;2022-08-21T10:34:22;101377.81;;;24.64;60.10
54262;BME280;40174;52.364;6.452;2022-08-21T10:37:16;101378.94;;;24.89;59.69
54262;BME280;40174;52.364;6.452;2022-08-21T10:39:54;101383.88;;;24.79;57.76
54262;BME280;40174;52.364;6.452;2022-08-21T10:42:29;101384.66;;;24.60;59.07
54262;BME280;40174;52.364;6.452;2022-08-21T10:45:02;101382.34;;;24.50;60.10
54262;BME280;40174;52.364;6.452;2022-08-21T10:47:35;101390.31;;;24.30;59.80
54262;BME280;40174;52.364;6.452;2022-08-21T10:50:10;101374.91;;;24.17;59.97
54262;BME280;40174;52.364;6.452;2022-08-21T10:52:55;101381.94;;;24.18;62.08
54262;BME280;40174;52.364;6.452;2022-08-21T10:55:26;101365.94;;;24.17;60.17
54262;BME280;40174;52.364;6.452;2022-08-21T10:57:58;101378.38;;;24.11;61.23
54262;BME280;40174;52.364;6.452;2022-08-21T11:00:32;101369.63;;;24.02;60.67
54262;BME280;40174;52.364;6.452;2022-08-21T11:03:04;101371.66;;;24.35;60.61
54262;BME280;40174;52.364;6.452;2022-08-21T11:05:36;101365.72;;;24.53;60.57
54262;BME280;40174;52.364;6.452;2022-08-21T11:08:10;101377.75;;;24.51;57.99
54262;BME280;40174;52.364;6.452;2022-08-21T11:10:40;101374.38;;;24.42;59.25
54262;BME280;40174;52.364;6.452;2022-08-21T11:13:26;101375.38;;;24.34;60.86
54262;BME280;40174;52.364;6.452;2022-08-21T11:15:58;101377.06;;;24.35;59.55
54262;BME280;40174;52.364;6.452;2022-08-21T11:18:29;101366.25;;;24.35;59.11
54262;BME280;40174;52.364;6.452;2022-08-21T11:21:19;101379.31;;;24.32;61.70
54262;BME280;40174;52.364;6.452;2022-08-21T11:23:54;101374.69;;;24.19;60.51
54262;BME280;40174;52.364;6.452;2022-08-21T11:26:34;101377.13;;;24.07;60.39
54262;BME280;40174;52.364;6.452;2022-08-21T11:29:09;101372.50;;;24.01;62.63
54262;BME280;40174;52.364;6.452;2022-08-21T11:31:46;101380.44;;;24.09;61.96
54262;BME280;40174;52.364;6.452;2022-08-21T11:34:26;101380.38;;;23.96;61.14
54262;BME280;40174;52.364;6.452;2022-08-21T11:37:02;101378.69;;;23.88;61.18
54262;BME280;40174;52.364;6.452;2022-08-21T11:39:39;101371.69;;;24.00;61.52
54262;BME280;40174;52.364;6.452;2022-08-21T11:42:17;101368.81;;;24.09;59.75
54262;BME280;40174;52.364;6.452;2022-08-21T11:44:55;101366.50;;;24.05;59.64
54262;BME280;40174;52.364;6.452;2022-08-21T11:47:45;101367.31;;;23.99;59.96
54262;BME280;40174;52.364;6.452;2022-08-21T11:50:17;101368.16;;;24.00;61.03
54262;BME280;40174;52.364;6.452;2022-08-21T11:52:48;101365.22;;;23.95;61.95
54262;BME280;40174;52.364;6.452;2022-08-21T11:55:21;101371.47;;;24.02;62.35
54262;BME280;40174;52.364;6.452;2022-08-21T11:57:53;101374.59;;;24.05;59.87
54262;BME280;40174;52.364;6.452;2022-08-21T12:00:24;101356.16;;;24.09;61.81
54262;BME280;40174;52.364;6.452;2022-08-21T12:02:55;101358.53;;;24.32;60.50
54262;BME280;40174;52.364;6.452;2022-08-21T12:05:26;101355.59;;;24.62;59.98
54262;BME280;40174;52.364;6.452;2022-08-21T12:08:06;101350.59;;;24.65;58.49
54262;BME280;40174;52.364;6.452;2022-08-21T12:10:36;101360.16;;;24.75;58.83
54262;BME280;40174;52.364;6.452;2022-08-21T12:13:10;101353.50;;;24.77;57.64
54262;BME280;40174;52.364;6.452;2022-08-21T12:15:39;101360.00;;;24.83;56.85
54262;BME280;40174;52.364;6.452;2022-08-21T12:18:18;101366.84;;;24.85;56.84
54262;BME280;40174;52.364;6.452;2022-08-21T12:20:59;101369.13;;;24.88;58.52
54262;BME280;40174;52.364;6.452;2022-08-21T12:23:30;101373.94;;;24.80;58.56
54262;BME280;40174;52.364;6.452;2022-08-21T12:26:11;101368.09;;;24.76;58.52
54262;BME280;40174;52.364;6.452;2022-08-21T12:28:40;101365.22;;;24.91;57.86
54262;BME280;40174;52.364;6.452;2022-08-21T12:31:20;101363.34;;;25.05;57.07
54262;BME280;40174;52.364;6.452;2022-08-21T12:33:52;101365.50;;;25.29;56.80
54262;BME280;40174;52.364;6.452;2022-08-21T12:36:22;101372.97;;;25.61;55.32
54262;BME280;40174;52.364;6.452;2022-08-21T12:38:52;101368.75;;;25.85;53.98
54262;BME280;40174;52.364;6.452;2022-08-21T12:41:26;101375.41;;;26.09;53.40
54262;BME280;40174;52.364;6.452;2022-08-21T12:43:57;101370.59;;;26.18;52.82
54262;BME280;40174;52.364;6.452;2022-08-21T12:46:30;101376.81;;;26.18;54.35
54262;BME280;40174;52.364;6.452;2022-08-21T12:49:00;101367.50;;;26.01;52.81
54262;BME280;40174;52.364;6.452;2022-08-21T12:51:32;101369.81;;;25.84;54.35
54262;BME280;40174;52.364;6.452;2022-08-21T12:54:02;101384.19;;;25.78;54.14
54262;BME280;40174;52.364;6.452;2022-08-21T12:56:33;101373.34;;;25.84;53.23
54262;BME280;40174;52.364;6.452;2022-08-21T12:59:03;101365.19;;;26.04;55.06